Sedalia, Colorado
Current Conditions -  °F | °C
As of 11:53 PM on Thursday 27 Nov 2014 (Local Time) from KAPA Reporting Station
Few Clouds Few Clouds  
Wind Chill: 40°   Ceiling: Unl
Heat Index: 45°   Visibility: 10mi
Dew Point: 18°   Wind: 10mph
Humidity: 34%   Direction: 150°SSE
Pressure: 30.08"   Gusts: NA
Location:  39.44°N, 104.96°W
Report Text: KAPA 280653Z 15009KT 10SM FEW120 FEW210 07/M08 A3008 RMK AO2 SLP153 T00721078 401780000
Loading
Personal Weather Stations






























Interactive Weather Map New forecast layout! Learn more

10-Day Weather Forecast

Advertisements
Track Severe Weather on mobile